Terminal Aerodrome Forecast
Issued by NWS

Home | Current Version | Previous Version | Text Only | Print | Product List | Glossary On
Versions: 1 2 3 4 5 6 7 8 9 10 11 12 13 14 15 16 17
000
FTUS43 KIWX 202300
TAFSBN
TAF
KSBN 202321Z 2100/2124 34010KT P6SM SCT015 OVC030
      TEMPO 2100/2104 5SM -SHRA BR BKN015
     FM212100 35011KT P6SM SCT030=

USA.gov is the U.S. government's official web portal to all federal, state and local government web resources and services.